Time;durP1;ratioP1;P1;durP2;ratioP2;P2;SDS_P1;SDS_P2;PMS_P1;PMS_P2;Temp;Humidity;BMP_temperature;BMP_pressure;BME280_temperature;BME280_humidity;BME280_pressure;Samples;Min_cycle;Max_cycle;Signal;HPM_P1;HPM_P2
2020/12/19 00:02:49;;;;;;;3.53;2.60;;;21.20;45.20;;;;;;6242250;28;20569;-67
2020/12/19 00:05:50;;;;;;;3.13;2.53;;;21.20;45.10;;;;;;6242882;28;20416;-67
2020/12/19 00:08:50;;;;;;;3.38;2.95;;;21.20;45.00;;;;;;6244725;28;20480;-67
2020/12/19 00:11:54;;;;;;;3.78;2.75;;;21.20;45.50;;;;;;6258765;28;20064;-67
2020/12/19 00:14:54;;;;;;;3.63;2.80;;;21.20;45.10;;;;;;6255200;28;20057;-66
2020/12/19 00:17:55;;;;;;;3.42;2.78;;;21.20;45.00;;;;;;6248283;28;20446;-67
2020/12/19 00:20:55;;;;;;;3.03;2.58;;;21.20;44.80;;;;;;6246911;28;20451;-66
2020/12/19 00:23:55;;;;;;;2.80;2.50;;;21.20;44.80;;;;;;6247543;28;20029;-66
2020/12/19 00:26:56;;;;;;;2.75;2.20;;;21.20;44.80;;;;;;6247356;28;20036;-67
2020/12/19 00:29:56;;;;;;;3.45;2.70;;;21.20;44.90;;;;;;6246536;28;20029;-68
2020/12/19 00:32:57;;;;;;;4.35;2.88;;;21.10;44.90;;;;;;6247390;28;20029;-68
2020/12/19 00:35:57;;;;;;;3.30;2.67;;;21.10;44.80;;;;;;6245274;28;20022;-68
2020/12/19 00:38:58;;;;;;;3.28;2.80;;;21.10;44.70;;;;;;6247231;28;20036;-66
2020/12/19 00:41:58;;;;;;;2.90;2.20;;;21.10;45.00;;;;;;6246486;28;20100;-67
2020/12/19 00:44:59;;;;;;;3.70;2.65;;;21.10;44.90;;;;;;6246942;28;20535;-67
2020/12/19 00:47:59;;;;;;;3.63;2.55;;;21.10;44.90;;;;;;6247913;28;20029;-67
2020/12/19 00:50:59;;;;;;;2.83;2.38;;;21.10;45.00;;;;;;6262434;28;20064;-68
2020/12/19 00:54:00;;;;;;;3.67;2.80;;;21.10;44.90;;;;;;6259211;28;20658;-66
2020/12/19 00:57:00;;;;;;;2.90;2.28;;;21.10;44.90;;;;;;6246573;28;20400;-66
2020/12/19 01:00:03;;;;;;;2.88;2.50;;;21.10;45.00;;;;;;6245188;28;20369;-66
2020/12/19 01:03:04;;;;;;;3.55;2.70;;;21.00;44.80;;;;;;6244543;28;20079;-67
2020/12/19 01:06:04;;;;;;;3.33;2.53;;;21.00;44.80;;;;;;6246247;28;20384;-67
2020/12/19 01:09:05;;;;;;;3.28;2.50;;;21.00;44.90;;;;;;6245806;28;20392;-66
2020/12/19 01:12:06;;;;;;;3.67;2.35;;;21.00;45.00;;;;;;6245752;28;20033;-67
2020/12/19 01:15:07;;;;;;;2.80;2.42;;;21.00;44.80;;;;;;6246330;28;20064;-67
2020/12/19 01:18:08;;;;;;;3.03;2.30;;;21.00;44.80;;;;;;6245949;28;20022;-67
2020/12/19 01:21:13;;;;;;;2.80;2.17;;;21.00;44.70;;;;;;6245624;28;20424;-67
2020/12/19 01:24:13;;;;;;;3.60;2.60;;;21.00;44.80;;;;;;6245545;28;20314;-66
2020/12/19 01:27:14;;;;;;;3.40;2.67;;;21.00;44.80;;;;;;6245375;28;20025;-67
2020/12/19 01:30:14;;;;;;;3.42;2.53;;;21.00;44.70;;;;;;6245217;28;20151;-67
2020/12/19 01:33:15;;;;;;;3.45;2.60;;;21.00;44.80;;;;;;6245753;28;20057;-67
2020/12/19 01:36:18;;;;;;;3.40;2.63;;;21.00;44.80;;;;;;6245862;28;20013;-66
2020/12/19 01:39:18;;;;;;;2.53;1.95;;;21.00;44.80;;;;;;6245369;28;20096;-66
2020/12/19 01:42:19;;;;;;;3.67;2.95;;;21.00;44.80;;;;;;6246191;28;20036;-67
2020/12/19 01:45:19;;;;;;;2.80;2.30;;;21.00;44.80;;;;;;6246166;28;20559;-67
2020/12/19 01:48:25;;;;;;;3.17;2.28;;;21.00;44.90;;;;;;6246354;28;20029;-66
2020/12/19 01:51:27;;;;;;;2.80;2.20;;;21.00;44.80;;;;;;6246011;28;20029;-66
2020/12/19 01:54:29;;;;;;;2.78;2.33;;;21.00;45.00;;;;;;6245694;28;20033;-66
2020/12/19 01:57:33;;;;;;;2.67;2.00;;;21.00;45.00;;;;;;6245546;28;20100;-67
2020/12/19 02:00:38;;;;;;;3.03;2.30;;;21.00;44.90;;;;;;6245103;28;20030;-67
2020/12/19 02:03:38;;;;;;;5.70;2.45;;;20.90;44.90;;;;;;6245481;28;20139;-67
2020/12/19 02:06:42;;;;;;;2.33;2.05;;;20.90;45.50;;;;;;6245652;28;20427;-68
2020/12/19 02:09:42;;;;;;;2.88;2.22;;;20.90;44.80;;;;;;6244014;28;20025;-68
2020/12/19 02:12:43;;;;;;;3.10;2.20;;;20.90;44.80;;;;;;6244829;28;20049;-68
2020/12/19 02:15:45;;;;;;;3.00;2.03;;;20.90;44.80;;;;;;6244437;28;20119;-68
2020/12/19 02:18:46;;;;;;;3.35;2.45;;;20.90;44.80;;;;;;6244969;28;20022;-68
2020/12/19 02:21:47;;;;;;;2.42;1.95;;;20.90;44.80;;;;;;6243934;28;20029;-68
2020/12/19 02:24:47;;;;;;;2.83;2.20;;;20.90;44.80;;;;;;6244699;28;20087;-68
2020/12/19 02:27:49;;;;;;;2.97;2.38;;;20.90;44.90;;;;;;6244613;28;20041;-68
2020/12/19 02:30:50;;;;;;;2.88;2.13;;;20.90;44.80;;;;;;6243821;28;20021;-68
2020/12/19 02:33:50;;;;;;;2.58;1.90;;;20.90;44.90;;;;;;6244725;28;20103;-68
2020/12/19 02:36:51;;;;;;;2.40;1.98;;;20.90;44.90;;;;;;6243101;28;20080;-68
2020/12/19 02:39:52;;;;;;;2.70;2.10;;;20.90;45.10;;;;;;6244164;28;20029;-68
2020/12/19 02:42:52;;;;;;;4.40;2.15;;;20.90;44.90;;;;;;6243539;28;20550;-68
2020/12/19 02:45:54;;;;;;;2.72;2.25;;;20.90;44.90;;;;;;6242643;28;20542;-68
2020/12/19 02:48:54;;;;;;;2.63;2.05;;;20.90;45.00;;;;;;6243818;28;20026;-68
2020/12/19 02:51:55;;;;;;;2.55;2.28;;;20.90;44.90;;;;;;6242036;28;20033;-68
2020/12/19 02:54:55;;;;;;;2.20;1.77;;;20.90;44.90;;;;;;6243826;28;20024;-68
2020/12/19 02:57:56;;;;;;;3.13;2.15;;;20.80;44.90;;;;;;6243711;28;20025;-68
2020/12/19 03:00:56;;;;;;;3.38;2.45;;;20.80;44.90;;;;;;6243781;28;20068;-68
2020/12/19 03:03:57;;;;;;;2.83;2.35;;;20.80;44.90;;;;;;6243366;28;20029;-68
2020/12/19 03:06:58;;;;;;;2.50;2.00;;;20.80;44.90;;;;;;6243619;28;20507;-68
2020/12/19 03:09:58;;;;;;;2.42;2.00;;;20.80;44.90;;;;;;6242813;28;20076;-68
2020/12/19 03:12:59;;;;;;;2.92;2.13;;;20.80;45.00;;;;;;6243392;28;20108;-68
2020/12/19 03:15:59;;;;;;;2.30;2.00;;;20.80;44.90;;;;;;6243471;28;20342;-68
2020/12/19 03:19:00;;;;;;;2.33;1.98;;;20.80;44.90;;;;;;6243374;28;20032;-68
2020/12/19 03:22:00;;;;;;;3.10;2.25;;;20.80;44.80;;;;;;6242915;28;20032;-68
2020/12/19 03:25:01;;;;;;;3.00;2.22;;;20.80;44.90;;;;;;6243577;28;20087;-68
2020/12/19 03:28:01;;;;;;;2.72;2.13;;;20.80;44.90;;;;;;6242894;28;20038;-68
2020/12/19 03:31:02;;;;;;;2.78;2.10;;;20.80;44.90;;;;;;6242572;28;20033;-68
2020/12/19 03:34:02;;;;;;;2.30;2.10;;;20.80;44.90;;;;;;6242944;28;20022;-68
2020/12/19 03:37:02;;;;;;;2.97;2.05;;;20.80;45.00;;;;;;6242888;28;20032;-68
2020/12/19 03:40:03;;;;;;;2.35;2.00;;;20.80;45.00;;;;;;6242563;28;20060;-68
2020/12/19 03:43:04;;;;;;;2.08;1.80;;;20.80;45.00;;;;;;6242845;28;20029;-68
2020/12/19 03:46:05;;;;;;;2.17;1.77;;;20.80;45.00;;;;;;6242589;28;20506;-68
2020/12/19 03:49:05;;;;;;;2.83;1.98;;;20.80;45.00;;;;;;6242560;28;20017;-68
2020/12/19 03:52:06;;;;;;;2.95;2.30;;;20.80;45.00;;;;;;6242316;28;20022;-68
2020/12/19 03:55:06;;;;;;;2.58;1.88;;;20.80;45.10;;;;;;6242982;28;20068;-68
2020/12/19 03:58:07;;;;;;;2.28;1.90;;;20.70;45.00;;;;;;6243003;28;20029;-68
2020/12/19 04:01:07;;;;;;;3.08;2.20;;;20.70;45.00;;;;;;6242462;28;20030;-68
2020/12/19 04:04:08;;;;;;;2.35;2.15;;;20.70;45.00;;;;;;6242117;28;20033;-68
2020/12/19 04:07:10;;;;;;;2.28;1.90;;;20.70;44.90;;;;;;6242885;28;20025;-68
2020/12/19 04:10:11;;;;;;;2.35;1.85;;;20.70;45.00;;;;;;6241789;28;20034;-68
2020/12/19 04:13:12;;;;;;;2.20;1.90;;;20.70;44.90;;;;;;6242986;28;20440;-68
2020/12/19 04:16:12;;;;;;;2.88;2.10;;;20.70;45.00;;;;;;6242838;28;20021;-68
2020/12/19 04:19:13;;;;;;;2.00;1.80;;;20.70;45.00;;;;;;6242960;28;20033;-68
2020/12/19 04:22:14;;;;;;;2.75;1.90;;;20.70;45.00;;;;;;6242091;28;20029;-68
2020/12/19 04:25:14;;;;;;;1.75;1.42;;;20.70;45.00;;;;;;6242254;28;20505;-69
2020/12/19 04:28:14;;;;;;;2.03;1.75;;;20.70;45.00;;;;;;6242564;28;20041;-68
2020/12/19 04:31:15;;;;;;;2.72;1.63;;;20.70;45.00;;;;;;6241501;28;20084;-68
2020/12/19 04:34:15;;;;;;;1.92;1.67;;;20.70;45.10;;;;;;6242445;28;20033;-68
2020/12/19 04:37:16;;;;;;;2.30;1.77;;;20.70;45.00;;;;;;6242433;28;20108;-68
2020/12/19 04:40:16;;;;;;;2.92;1.70;;;20.70;45.00;;;;;;6242357;28;20469;-68
2020/12/19 04:43:19;;;;;;;2.92;2.03;;;20.70;45.00;;;;;;6241995;28;20273;-68
2020/12/19 04:46:21;;;;;;;2.10;1.73;;;20.70;45.20;;;;;;6242535;28;20025;-68
2020/12/19 04:49:23;;;;;;;2.05;1.60;;;20.70;45.00;;;;;;6240832;28;20030;-68
2020/12/19 04:52:24;;;;;;;2.20;1.73;;;20.70;45.00;;;;;;6241893;28;20024;-68
2020/12/19 04:55:25;;;;;;;2.53;1.98;;;20.70;45.00;;;;;;6242247;28;20025;-69
2020/12/19 04:58:26;;;;;;;2.17;1.60;;;20.70;45.10;;;;;;6240866;28;20024;-68
2020/12/19 05:01:27;;;;;;;2.20;1.63;;;20.70;45.10;;;;;;6244290;28;20477;-68
2020/12/19 05:04:27;;;;;;;2.30;1.67;;;20.60;45.00;;;;;;6244762;28;20033;-68
2020/12/19 05:07:28;;;;;;;2.00;1.70;;;20.60;45.00;;;;;;6245198;28;20036;-68
2020/12/19 05:10:28;;;;;;;2.03;1.75;;;20.60;45.00;;;;;;6245641;28;20036;-68
2020/12/19 05:13:30;;;;;;;2.40;1.90;;;20.60;44.90;;;;;;6246318;28;20026;-68
2020/12/19 05:16:32;;;;;;;2.45;1.73;;;20.70;45.70;;;;;;6246431;28;20057;-68
2020/12/19 05:19:32;;;;;;;2.70;1.60;;;20.60;45.00;;;;;;6245551;28;20049;-68
2020/12/19 05:22:34;;;;;;;2.13;1.70;;;20.70;45.10;;;;;;6245922;28;20023;-68
2020/12/19 05:25:38;;;;;;;1.92;1.55;;;20.70;45.10;;;;;;6245945;28;20021;-68
2020/12/19 05:28:41;;;;;;;2.08;1.55;;;20.60;45.00;;;;;;6246304;28;20553;-68
2020/12/19 05:31:42;;;;;;;2.05;1.60;;;20.60;45.00;;;;;;6246071;28;20049;-68
2020/12/19 05:34:42;;;;;;;1.85;1.52;;;20.60;45.00;;;;;;6250693;28;20379;-68
2020/12/19 05:37:43;;;;;;;3.13;2.20;;;20.60;45.00;;;;;;6262376;28;20021;-68
2020/12/19 05:40:44;;;;;;;2.45;1.75;;;20.60;45.00;;;;;;6256184;28;20108;-68
2020/12/19 05:43:52;;;;;;;2.38;1.65;;;20.60;45.00;;;;;;6244461;28;20033;-68
2020/12/19 05:46:52;;;;;;;2.15;1.55;;;20.60;45.00;;;;;;6245724;28;20128;-68
2020/12/19 05:49:53;;;;;;;1.83;1.60;;;20.60;45.10;;;;;;6245691;28;20033;-68
2020/12/19 05:52:56;;;;;;;1.75;1.48;;;20.60;45.10;;;;;;6245404;28;20032;-68
2020/12/19 05:55:56;;;;;;;3.92;1.90;;;20.60;45.00;;;;;;6245202;28;20030;-68
2020/12/19 05:59:00;;;;;;;1.88;1.45;;;20.60;45.10;;;;;;6245199;28;20045;-68
2020/12/19 06:02:02;;;;;;;2.15;1.50;;;20.60;45.10;;;;;;6244759;28;20380;-68
2020/12/19 06:05:08;;;;;;;2.00;1.63;;;20.60;45.10;;;;;;6244790;28;20041;-68
2020/12/19 06:08:18;;;;;;;1.77;1.42;;;20.60;45.10;;;;;;6245139;28;20249;-68
2020/12/19 06:11:21;;;;;;;2.17;1.73;;;20.60;45.00;;;;;;6244432;28;20431;-68
2020/12/19 06:14:24;;;;;;;2.40;1.80;;;20.60;45.10;;;;;;6245532;28;20380;-68
2020/12/19 06:17:45;;;;;;;2.25;1.73;;;20.60;45.00;;;;;;6244627;28;20036;-68
2020/12/19 06:20:46;;;;;;;1.80;1.55;;;20.60;45.10;;;;;;6244403;28;20048;-68
2020/12/19 06:23:47;;;;;;;2.40;1.70;;;20.60;45.10;;;;;;6244793;28;20060;-68
2020/12/19 06:26:47;;;;;;;2.38;1.83;;;20.60;45.10;;;;;;6244577;28;20517;-68
2020/12/19 06:29:49;;;;;;;1.90;1.40;;;20.60;45.10;;;;;;6244183;28;20507;-68
2020/12/19 06:32:50;;;;;;;1.83;1.50;;;20.60;45.10;;;;;;6244309;28;20021;-68
2020/12/19 06:35:51;;;;;;;1.45;1.35;;;20.60;45.10;;;;;;6244658;28;20022;-68
2020/12/19 06:38:53;;;;;;;2.30;1.83;;;20.60;45.10;;;;;;6244112;28;20388;-68
2020/12/19 06:41:58;;;;;;;2.05;1.50;;;20.60;45.10;;;;;;6244058;28;20362;-68
2020/12/19 06:45:29;;;;;;;2.10;1.60;;;20.60;45.10;;;;;;6244193;28;20032;-68
2020/12/19 06:48:32;;;;;;;2.35;1.73;;;20.60;45.10;;;;;;6243670;28;20029;-68
2020/12/19 06:51:59;;;;;;;2.03;1.67;;;20.60;45.20;;;;;;6244013;28;20052;-68
2020/12/19 06:55:18;;;;;;;2.13;1.50;;;20.50;45.10;;;;;;6243534;28;20500;-68
2020/12/19 06:58:32;;;;;;;1.50;1.40;;;20.50;45.10;;;;;;6243741;28;20026;-68
2020/12/19 07:01:33;;;;;;;1.75;1.52;;;20.50;45.10;;;;;;6243430;28;20025;-68
2020/12/19 07:04:35;;;;;;;1.63;1.50;;;20.50;45.10;;;;;;6243654;28;20026;-68
2020/12/19 07:07:35;;;;;;;1.95;1.65;;;20.50;45.10;;;;;;6243611;28;20063;-68
2020/12/19 07:10:36;;;;;;;1.70;1.45;;;20.50;45.10;;;;;;6242887;28;20026;-68
2020/12/19 07:13:54;;;;;;;1.48;1.38;;;20.50;45.10;;;;;;6243164;28;20060;-68
2020/12/19 07:16:54;;;;;;;2.33;1.70;;;20.50;45.10;;;;;;6242518;28;20440;-68
2020/12/19 07:20:00;;;;;;;2.45;1.63;;;20.50;45.10;;;;;;6242820;28;20029;-68
2020/12/19 07:23:00;;;;;;;1.60;1.35;;;20.50;45.10;;;;;;6243153;28;20067;-68
2020/12/19 07:26:01;;;;;;;2.05;1.50;;;20.50;45.10;;;;;;6247330;28;20029;-68
2020/12/19 07:29:11;;;;;;;2.00;1.55;;;20.50;45.10;;;;;;6256805;28;20026;-68
2020/12/19 07:32:12;;;;;;;1.80;1.40;;;20.50;45.20;;;;;;6242967;28;20029;-68
2020/12/19 07:35:12;;;;;;;2.03;1.65;;;20.50;45.20;;;;;;6245811;28;20204;-68
2020/12/19 07:38:13;;;;;;;2.25;1.58;;;20.50;45.20;;;;;;6244983;28;20036;-68
2020/12/19 07:41:16;;;;;;;1.38;1.23;;;20.50;45.40;;;;;;6243210;28;20447;-68
2020/12/19 07:44:18;;;;;;;2.45;1.50;;;20.50;45.20;;;;;;6242502;28;20029;-68
2020/12/19 07:47:19;;;;;;;2.03;1.45;;;20.50;45.20;;;;;;6243168;28;20037;-68
2020/12/19 07:50:27;;;;;;;1.45;1.17;;;20.50;45.20;;;;;;6242519;28;20457;-68
2020/12/19 07:53:28;;;;;;;1.50;1.40;;;20.50;45.20;;;;;;6242512;28;20453;-68
2020/12/19 07:56:29;;;;;;;1.80;1.50;;;20.50;45.20;;;;;;6242968;28;20033;-68
2020/12/19 07:59:29;;;;;;;1.88;1.48;;;20.60;45.40;;;;;;6242617;28;20439;-68
2020/12/19 08:02:30;;;;;;;1.38;1.27;;;20.60;45.30;;;;;;6242537;28;20053;-68
2020/12/19 08:05:30;;;;;;;2.20;1.52;;;20.60;45.40;;;;;;6243246;28;20500;-68
2020/12/19 08:08:31;;;;;;;2.65;1.42;;;20.60;45.40;;;;;;6242992;28;20182;-68
2020/12/19 08:11:31;;;;;;;1.88;1.33;;;20.60;45.40;;;;;;6242167;28;20041;-68
2020/12/19 08:14:33;;;;;;;1.65;1.33;;;20.60;45.40;;;;;;6242764;28;20040;-67
2020/12/19 08:17:38;;;;;;;1.40;1.20;;;20.60;45.40;;;;;;6242501;28;20108;-68
2020/12/19 08:20:40;;;;;;;1.75;1.50;;;20.60;45.40;;;;;;6242221;28;20488;-68
2020/12/19 08:23:41;;;;;;;1.58;1.38;;;20.60;45.40;;;;;;6242228;28;20030;-68
2020/12/19 08:26:41;;;;;;;2.05;1.40;;;20.60;45.40;;;;;;6242320;28;20439;-68
2020/12/19 08:29:42;;;;;;;1.83;1.55;;;20.60;45.50;;;;;;6242390;28;20033;-68
2020/12/19 08:32:59;;;;;;;1.55;1.30;;;20.60;45.40;;;;;;6241897;28;20377;-67
2020/12/19 08:36:00;;;;;;;1.90;1.50;;;20.60;45.50;;;;;;6244034;28;20022;-68
2020/12/19 08:39:16;;;;;;;1.83;1.25;;;20.60;45.50;;;;;;6247065;28;20495;-68
2020/12/19 08:42:17;;;;;;;2.53;1.30;;;20.60;45.50;;;;;;6247194;28;20033;-67
2020/12/19 08:45:24;;;;;;;1.58;1.30;;;20.60;45.50;;;;;;6269450;28;20029;-68
2020/12/19 08:48:25;;;;;;;1.65;1.35;;;20.60;45.50;;;;;;6271617;28;20155;-67
2020/12/19 08:51:25;;;;;;;1.50;1.20;;;20.60;45.60;;;;;;6271707;28;20133;-68
2020/12/19 08:54:26;;;;;;;1.73;1.45;;;20.60;45.60;;;;;;6270235;28;20029;-68
2020/12/19 08:57:31;;;;;;;1.83;1.40;;;20.60;45.60;;;;;;6271510;28;20028;-68
2020/12/19 09:00:33;;;;;;;1.75;1.30;;;20.60;45.50;;;;;;6271387;28;20524;-67
2020/12/19 09:03:35;;;;;;;1.60;1.30;;;20.60;45.60;;;;;;6270112;28;20085;-66
2020/12/19 09:06:46;;;;;;;1.88;1.50;;;20.60;45.60;;;;;;6271108;28;20365;-68
2020/12/19 09:09:46;;;;;;;2.33;1.33;;;20.60;45.60;;;;;;6271248;28;20067;-68
2020/12/19 09:12:47;;;;;;;1.65;1.25;;;20.60;45.60;;;;;;6270739;28;20482;-68
2020/12/19 09:15:49;;;;;;;1.80;1.42;;;20.70;45.50;;;;;;6269683;28;20029;-68
2020/12/19 09:18:49;;;;;;;1.63;1.23;;;20.70;45.50;;;;;;6270956;28;20031;-68
2020/12/19 09:22:00;;;;;;;1.60;1.00;;;20.80;45.30;;;;;;6270682;28;20399;-67
2020/12/19 09:25:01;;;;;;;1.48;1.30;;;20.80;45.40;;;;;;6270555;28;20458;-68
2020/12/19 09:28:02;;;;;;;2.05;1.60;;;20.80;45.40;;;;;;6271426;28;20113;-68
2020/12/19 09:31:02;;;;;;;2.15;1.58;;;20.90;45.40;;;;;;6269884;28;20112;-68
2020/12/19 09:34:03;;;;;;;1.75;1.52;;;20.90;45.40;;;;;;6271288;28;20053;-68
2020/12/19 09:37:03;;;;;;;1.75;1.40;;;20.90;45.50;;;;;;6270025;28;20025;-67
2020/12/19 09:40:03;;;;;;;1.60;1.30;;;20.90;45.30;;;;;;6270551;28;20018;-67
2020/12/19 09:43:05;;;;;;;1.40;1.20;;;21.00;45.40;;;;;;6270233;28;20079;-67
2020/12/19 09:46:05;;;;;;;1.95;1.42;;;21.00;45.40;;;;;;6269941;28;20028;-68
2020/12/19 09:49:06;;;;;;;1.73;1.33;;;21.00;45.40;;;;;;6270700;28;20480;-68
2020/12/19 09:52:06;;;;;;;1.30;1.10;;;21.00;45.40;;;;;;6269585;28;20051;-68
2020/12/19 09:55:09;;;;;;;1.58;1.10;;;21.00;45.40;;;;;;6270201;28;20021;-68
2020/12/19 09:58:10;;;;;;;1.55;1.20;;;21.00;45.50;;;;;;6269247;28;20028;-68
2020/12/19 10:01:11;;;;;;;1.67;1.38;;;21.00;45.50;;;;;;6270016;28;20017;-68
2020/12/19 10:04:11;;;;;;;1.95;1.30;;;21.00;45.60;;;;;;6269761;28;20079;-67
2020/12/19 10:07:12;;;;;;;1.77;1.23;;;21.00;45.40;;;;;;6268531;28;20025;-68
2020/12/19 10:10:12;;;;;;;1.77;1.27;;;21.10;45.40;;;;;;6268105;28;20443;-67
2020/12/19 10:13:13;;;;;;;1.30;1.00;;;21.10;45.20;;;;;;6269153;28;20071;-68
2020/12/19 10:16:14;;;;;;;1.80;1.20;;;21.10;45.20;;;;;;6269634;28;20115;-68
2020/12/19 10:19:14;;;;;;;1.48;1.20;;;21.10;45.30;;;;;;6269052;28;20349;-68
2020/12/19 10:22:15;;;;;;;2.05;1.30;;;21.10;45.40;;;;;;6269101;28;20385;-68
2020/12/19 10:25:15;;;;;;;1.45;1.20;;;21.10;45.50;;;;;;6269184;28;20031;-68
2020/12/19 10:28:16;;;;;;;1.30;1.10;;;21.10;45.40;;;;;;6268842;28;20033;-67
2020/12/19 10:31:16;;;;;;;1.50;1.10;;;21.10;45.40;;;;;;6268562;28;20025;-68
2020/12/19 10:34:17;;;;;;;1.50;1.35;;;21.10;45.40;;;;;;6269474;28;20028;-68
2020/12/19 10:37:17;;;;;;;2.33;1.45;;;21.10;45.40;;;;;;6268900;28;20028;-68
2020/12/19 10:40:18;;;;;;;1.33;1.13;;;21.10;45.50;;;;;;6268345;28;20068;-68
2020/12/19 10:43:18;;;;;;;2.10;1.42;;;21.10;45.50;;;;;;6268886;28;20032;-68
2020/12/19 10:46:23;;;;;;;1.45;1.25;;;21.10;45.50;;;;;;6269141;28;20025;-68
2020/12/19 10:49:24;;;;;;;2.08;1.40;;;21.10;45.60;;;;;;6268657;28;20025;-68
2020/12/19 10:52:25;;;;;;;1.70;1.50;;;21.10;46.20;;;;;;6268280;28;20060;-68
2020/12/19 10:55:25;;;;;;;1.52;1.25;;;21.10;45.60;;;;;;6268577;28;20017;-68
2020/12/19 10:58:26;;;;;;;1.30;1.20;;;21.10;45.50;;;;;;6267624;28;20028;-68
2020/12/19 11:01:26;;;;;;;1.80;1.33;;;21.10;45.50;;;;;;6268069;28;20029;-68
2020/12/19 11:04:27;;;;;;;8.80;1.50;;;21.10;45.60;;;;;;6257327;28;20048;-71
2020/12/19 11:07:27;;;;;;;34.83;6.40;;;21.10;45.30;;;;;;6254545;28;20108;-69
2020/12/19 11:10:28;;;;;;;34.42;7.60;;;20.80;41.50;;;;;;6241817;28;20045;-69
2020/12/19 11:13:28;;;;;;;28.40;7.15;;;20.60;41.40;;;;;;6248216;28;20025;-69
2020/12/19 11:16:29;;;;;;;19.20;6.72;;;20.60;40.90;;;;;;6251300;28;20155;-68
2020/12/19 11:19:30;;;;;;;42.67;5.85;;;20.60;40.00;;;;;;6266926;28;20044;-69
2020/12/19 11:22:31;;;;;;;18.00;4.68;;;20.80;42.80;;;;;;6263591;28;20095;-66
2020/12/19 11:25:31;;;;;;;20.80;4.35;;;20.90;42.70;;;;;;6263763;28;20095;-66
2020/12/19 11:28:32;;;;;;;8.35;3.72;;;21.10;42.70;;;;;;6266540;28;20036;-67
2020/12/19 11:31:33;;;;;;;51.03;4.57;;;21.30;43.10;;;;;;6266622;28;20032;-63
2020/12/19 11:34:34;;;;;;;9.25;3.22;;;21.30;44.00;;;;;;6266378;28;20044;-68
2020/12/19 11:37:34;;;;;;;13.80;3.85;;;21.40;43.20;;;;;;6256894;28;20028;-68
2020/12/19 11:40:35;;;;;;;12.23;3.97;;;21.40;43.00;;;;;;6241451;28;20033;-67
2020/12/19 11:43:35;;;;;;;23.70;3.75;;;21.50;43.40;;;;;;6262653;28;20674;-69
2020/12/19 11:46:36;;;;;;;22.30;3.97;;;21.50;44.60;;;;;;6266345;28;20029;-67
2020/12/19 11:49:36;;;;;;;5.45;3.38;;;21.60;44.40;;;;;;6266370;28;20147;-67
2020/12/19 11:52:37;;;;;;;9.75;3.00;;;21.60;44.00;;;;;;6265989;28;20037;-67
2020/12/19 11:55:37;;;;;;;10.90;3.10;;;21.60;44.20;;;;;;6247568;28;20030;-68
2020/12/19 11:58:38;;;;;;;10.35;3.63;;;21.60;44.20;;;;;;6258717;28;20033;-69
2020/12/19 12:01:38;;;;;;;12.07;3.35;;;21.60;44.50;;;;;;6240321;28;20524;-67
2020/12/19 12:04:39;;;;;;;20.65;4.03;;;21.60;44.30;;;;;;6241409;28;20084;-67
2020/12/19 12:07:39;;;;;;;15.13;4.50;;;21.50;43.10;;;;;;6239920;28;20033;-67
2020/12/19 12:10:42;;;;;;;18.80;5.75;;;21.30;42.50;;;;;;6243120;28;20112;-70
2020/12/19 12:13:42;;;;;;;13.35;5.97;;;21.10;40.90;;;;;;6261057;28;20029;-67
2020/12/19 12:16:43;;;;;;;15.25;6.05;;;20.90;41.00;;;;;;6246180;28;20294;-68
2020/12/19 12:19:43;;;;;;;23.05;6.20;;;21.00;40.70;;;;;;6246282;28;20025;-68
2020/12/19 12:22:45;;;;;;;13.93;6.22;;;21.00;39.80;;;;;;6251449;28;20560;-71
2020/12/19 12:25:45;;;;;;;19.45;6.70;;;21.00;40.00;;;;;;6275632;28;20467;-72
2020/12/19 12:28:46;;;;;;;19.02;6.95;;;21.00;40.80;;;;;;6260519;28;20025;-72
2020/12/19 12:31:46;;;;;;;15.85;5.90;;;21.10;38.80;;;;;;6270430;28;20031;-73
2020/12/19 12:34:47;;;;;;;16.67;6.68;;;21.20;41.20;;;;;;6249070;28;20018;-68
2020/12/19 12:37:47;;;;;;;14.90;5.85;;;21.10;39.20;;;;;;6246230;28;20586;-69
2020/12/19 12:40:48;;;;;;;14.38;6.65;;;21.00;39.50;;;;;;6245318;28;20026;-67
2020/12/19 12:43:48;;;;;;;15.70;5.80;;;21.00;38.00;;;;;;6258591;28;20698;-70
2020/12/19 12:46:49;;;;;;;17.20;6.55;;;20.90;39.70;;;;;;6249362;28;20033;-70
2020/12/19 12:49:49;;;;;;;26.35;6.75;;;21.00;37.10;;;;;;6246235;28;20029;-68
2020/12/19 12:52:50;;;;;;;24.58;6.65;;;20.90;38.10;;;;;;6248955;28;20032;-69
2020/12/19 12:55:50;;;;;;;14.48;7.05;;;20.80;39.80;;;;;;6270005;28;20090;-68
2020/12/19 12:58:52;;;;;;;18.35;6.70;;;20.80;37.00;;;;;;6255740;28;20021;-67
2020/12/19 13:01:52;;;;;;;107.25;9.95;;;20.70;38.10;;;;;;6244254;28;20479;-69
2020/12/19 13:04:53;;;;;;;29.38;8.40;;;20.60;37.10;;;;;;6243837;28;20029;-69
2020/12/19 13:07:53;;;;;;;19.45;7.57;;;20.30;36.30;;;;;;6245073;28;20415;-69
2020/12/19 13:10:54;;;;;;;15.32;7.72;;;20.10;36.30;;;;;;6245372;28;20538;-70
2020/12/19 13:13:54;;;;;;;21.55;7.15;;;20.00;38.40;;;;;;6253828;28;20108;-67
2020/12/19 13:16:55;;;;;;;9.75;6.60;;;20.00;37.20;;;;;;6255294;28;20067;-70
2020/12/19 13:19:55;;;;;;;13.38;8.10;;;19.80;37.30;;;;;;6245333;28;20029;-68
2020/12/19 13:22:56;;;;;;;16.90;7.90;;;19.60;37.50;;;;;;6245292;28;20025;-69
2020/12/19 13:25:57;;;;;;;12.98;7.93;;;19.40;37.00;;;;;;6265403;28;20108;-69
2020/12/19 13:28:57;;;;;;;10.48;6.90;;;19.40;38.10;;;;;;6251599;28;20086;-70
2020/12/19 13:31:58;;;;;;;13.10;7.38;;;19.40;37.70;;;;;;6246338;28;20021;-64
2020/12/19 13:34:59;;;;;;;41.15;11.25;;;19.50;37.50;;;;;;6260417;28;20029;-67
2020/12/19 13:37:59;;;;;;;18.40;8.10;;;19.50;38.10;;;;;;6268974;28;20443;-67
2020/12/19 13:41:00;;;;;;;18.50;6.90;;;19.50;37.20;;;;;;6245979;28;20153;-65
2020/12/19 13:44:01;;;;;;;68.18;9.77;;;19.60;37.50;;;;;;6244715;28;20026;-64
2020/12/19 13:47:02;;;;;;;28.58;8.35;;;19.50;36.90;;;;;;6243731;28;20065;-66
2020/12/19 13:50:04;;;;;;;22.58;8.45;;;19.30;37.10;;;;;;6243970;28;20543;-69
2020/12/19 13:53:05;;;;;;;21.38;7.70;;;19.30;38.80;;;;;;6243199;28;20025;-67
2020/12/19 13:56:05;;;;;;;18.08;6.75;;;19.80;39.80;;;;;;6264266;28;20523;-65
2020/12/19 13:59:07;;;;;;;18.55;7.90;;;20.00;37.00;;;;;;6265854;28;20675;-67
2020/12/19 14:02:09;;;;;;;18.58;8.15;;;19.80;37.00;;;;;;6243675;28;20026;-70
2020/12/19 14:05:09;;;;;;;23.05;8.98;;;19.80;37.10;;;;;;6244020;28;20478;-67
2020/12/19 14:08:10;;;;;;;14.98;7.47;;;19.70;37.00;;;;;;6243141;28;20044;-69
2020/12/19 14:11:10;;;;;;;11.45;7.43;;;19.60;36.80;;;;;;6243783;28;20030;-69
2020/12/19 14:14:11;;;;;;;62.47;9.15;;;19.70;37.00;;;;;;6243694;28;20021;-68
2020/12/19 14:17:11;;;;;;;30.17;7.60;;;19.90;36.30;;;;;;6243853;28;20411;-66
2020/12/19 14:20:12;;;;;;;61.78;9.02;;;20.00;36.50;;;;;;6246419;28;20026;-67
2020/12/19 14:23:12;;;;;;;35.75;7.38;;;20.10;36.00;;;;;;6243384;28;20022;-65
2020/12/19 14:26:20;;;;;;;21.45;7.75;;;20.20;37.30;;;;;;6243207;28;20057;-65
2020/12/19 14:29:21;;;;;;;27.20;7.68;;;20.10;35.80;;;;;;6251022;28;20385;-65
2020/12/19 14:32:22;;;;;;;26.42;7.47;;;20.00;36.60;;;;;;6242500;28;20037;-66
2020/12/19 14:35:22;;;;;;;19.73;7.20;;;20.00;36.40;;;;;;6249572;28;20032;-68
2020/12/19 14:38:23;;;;;;;19.13;7.25;;;20.10;37.30;;;;;;6266614;28;20017;-69
2020/12/19 14:41:24;;;;;;;16.55;6.63;;;20.10;35.90;;;;;;6267097;28;20029;-67
2020/12/19 14:44:24;;;;;;;17.45;7.32;;;20.20;36.70;;;;;;6268219;28;20025;-65
2020/12/19 14:47:25;;;;;;;25.10;7.70;;;20.30;37.30;;;;;;6250176;28;20072;-66
2020/12/19 14:50:25;;;;;;;28.65;7.90;;;20.30;35.90;;;;;;6242681;28;20060;-64
2020/12/19 14:53:26;;;;;;;20.38;6.88;;;20.40;35.80;;;;;;6242921;28;20017;-70
2020/12/19 14:56:26;;;;;;;13.20;7.80;;;20.40;36.50;;;;;;6242154;28;20045;-63
2020/12/19 14:59:27;;;;;;;42.72;11.07;;;20.30;35.70;;;;;;6242996;28;20022;-69
2020/12/19 15:02:27;;;;;;;29.77;9.50;;;20.40;36.70;;;;;;6241911;28;20084;-72
2020/12/19 15:05:27;;;;;;;19.55;8.05;;;20.50;36.70;;;;;;6242787;28;20029;-65
2020/12/19 15:08:28;;;;;;;21.13;8.15;;;20.50;36.40;;;;;;6242322;28;20037;-68
2020/12/19 15:11:28;;;;;;;25.25;7.32;;;20.50;35.30;;;;;;6242145;28;20034;-69
2020/12/19 15:14:29;;;;;;;16.52;6.70;;;20.40;35.30;;;;;;6242375;28;20041;-69
2020/12/19 15:17:29;;;;;;;17.80;6.38;;;20.40;35.90;;;;;;6242080;28;20100;-67
2020/12/19 15:20:30;;;;;;;22.88;6.90;;;20.60;37.60;;;;;;6241486;28;20515;-65
2020/12/19 15:23:31;;;;;;;10.32;5.80;;;20.80;38.00;;;;;;6242266;28;20118;-66
2020/12/19 15:26:31;;;;;;;17.58;5.40;;;20.90;37.80;;;;;;6241715;28;20469;-65
2020/12/19 15:29:32;;;;;;;9.38;4.70;;;21.00;38.00;;;;;;6242268;28;20607;-64
2020/12/19 15:32:32;;;;;;;11.48;4.95;;;21.00;38.30;;;;;;6252934;28;20445;-70
2020/12/19 15:35:33;;;;;;;11.75;4.88;;;21.10;38.70;;;;;;6260299;28;20104;-73
2020/12/19 15:38:33;;;;;;;15.65;4.82;;;21.10;38.80;;;;;;6266757;28;20021;-66
2020/12/19 15:41:34;;;;;;;12.13;4.43;;;21.30;39.20;;;;;;6266228;28;20028;-66